sensor_id;sensor_type;location;lat;lon;timestamp;pressure;altitude;pressure_sealevel;temperature;humidity
74621;BME280;75998;47.550;19.254;2024-02-26T00:01:15;98463.94;;;8.44;97.53
74621;BME280;75998;47.550;19.254;2024-02-26T00:03:46;98282.25;;;7.36;97.28
74621;BME280;75998;47.550;19.254;2024-02-26T00:06:22;98241.38;;;7.12;97.40
74621;BME280;75998;47.550;19.254;2024-02-26T00:08:48;98467.06;;;8.49;97.42
74621;BME280;75998;47.550;19.254;2024-02-26T00:11:16;98214.56;;;6.99;97.30
74621;BME280;75998;47.550;19.254;2024-02-26T00:13:44;98173.91;;;6.72;97.21
74621;BME280;75998;47.550;19.254;2024-02-26T00:16:12;98254.25;;;7.14;97.36
74621;BME280;75998;47.550;19.254;2024-02-26T00:18:41;98205.41;;;6.93;97.31
74621;BME280;75998;47.550;19.254;2024-02-26T00:21:12;98196.88;;;6.91;97.09
74621;BME280;75998;47.550;19.254;2024-02-26T00:23:46;98340.78;;;7.67;97.61
74621;BME280;75998;47.550;19.254;2024-02-26T00:26:12;98196.78;;;6.93;97.61
74621;BME280;75998;47.550;19.254;2024-02-26T00:28:37;98420.31;;;8.22;97.40
74621;BME280;75998;47.550;19.254;2024-02-26T00:31:03;98434.03;;;8.24;97.46
74621;BME280;75998;47.550;19.254;2024-02-26T00:33:29;98404.38;;;8.14;97.70
74621;BME280;75998;47.550;19.254;2024-02-26T00:35:54;98211.22;;;6.97;97.44
74621;BME280;75998;47.550;19.254;2024-02-26T00:38:20;98352.97;;;7.79;97.74
74621;BME280;75998;47.550;19.254;2024-02-26T00:40:45;98411.56;;;8.23;97.96
74621;BME280;75998;47.550;19.254;2024-02-26T00:43:11;98249.06;;;7.14;97.61
74621;BME280;75998;47.550;19.254;2024-02-26T00:45:37;98236.06;;;7.14;97.54
74621;BME280;75998;47.550;19.254;2024-02-26T00:48:02;98436.53;;;8.26;97.68
74621;BME280;75998;47.550;19.254;2024-02-26T00:50:35;98253.81;;;7.07;97.71
74621;BME280;75998;47.550;19.254;2024-02-26T00:53:01;98188.84;;;6.81;97.47
74621;BME280;75998;47.550;19.254;2024-02-26T00:55:32;98379.50;;;7.97;97.64
74621;BME280;75998;47.550;19.254;2024-02-26T00:57:57;98383.03;;;7.96;97.75
74621;BME280;75998;47.550;19.254;2024-02-26T01:00:29;98155.16;;;6.54;97.41
74621;BME280;75998;47.550;19.254;2024-02-26T01:02:57;98224.00;;;7.00;97.68
74621;BME280;75998;47.550;19.254;2024-02-26T01:05:25;98237.84;;;7.13;97.81
74621;BME280;75998;47.550;19.254;2024-02-26T01:07:50;98325.72;;;7.72;97.71
74621;BME280;75998;47.550;19.254;2024-02-26T01:10:23;98260.22;;;7.28;97.75
74621;BME280;75998;47.550;19.254;2024-02-26T01:12:49;98278.28;;;7.30;97.49
74621;BME280;75998;47.550;19.254;2024-02-26T01:15:16;98437.66;;;8.34;97.59
74621;BME280;75998;47.550;19.254;2024-02-26T01:17:44;98423.81;;;8.34;97.79
74621;BME280;75998;47.550;19.254;2024-02-26T01:20:12;98369.50;;;8.04;97.51
74621;BME280;75998;47.550;19.254;2024-02-26T01:22:38;98422.59;;;8.39;97.65
74621;BME280;75998;47.550;19.254;2024-02-26T01:25:09;98288.38;;;7.60;97.62
74621;BME280;75998;47.550;19.254;2024-02-26T01:27:37;98261.34;;;7.37;97.39
74621;BME280;75998;47.550;19.254;2024-02-26T01:30:03;98345.25;;;7.77;97.27
74621;BME280;75998;47.550;19.254;2024-02-26T01:32:30;98154.25;;;6.68;96.83
74621;BME280;75998;47.550;19.254;2024-02-26T01:34:56;98212.69;;;7.14;97.13
74621;BME280;75998;47.550;19.254;2024-02-26T01:37:22;98180.59;;;7.02;96.82
74621;BME280;75998;47.550;19.254;2024-02-26T01:39:48;98232.75;;;7.50;97.15
74621;BME280;75998;47.550;19.254;2024-02-26T01:42:13;98211.34;;;7.34;96.43
74621;BME280;75998;47.550;19.254;2024-02-26T01:44:39;98273.41;;;7.64;96.37
74621;BME280;75998;47.550;19.254;2024-02-26T01:47:07;98282.22;;;7.74;96.29
74621;BME280;75998;47.550;19.254;2024-02-26T01:49:36;98279.22;;;7.67;95.90
74621;BME280;75998;47.550;19.254;2024-02-26T01:52:13;98094.44;;;6.57;96.04
74621;BME280;75998;47.550;19.254;2024-02-26T01:54:44;98095.91;;;6.61;95.71
74621;BME280;75998;47.550;19.254;2024-02-26T01:57:19;98290.44;;;7.93;95.41
74621;BME280;75998;47.550;19.254;2024-02-26T01:59:50;98182.88;;;7.06;95.32
74621;BME280;75998;47.550;19.254;2024-02-26T02:02:16;98387.13;;;8.38;95.73
74621;BME280;75998;47.550;19.254;2024-02-26T02:04:42;98121.47;;;6.80;95.56
74621;BME280;75998;47.550;19.254;2024-02-26T02:07:11;98365.44;;;8.25;95.75
74621;BME280;75998;47.550;19.254;2024-02-26T02:09:37;98104.03;;;6.69;95.16
74621;BME280;75998;47.550;19.254;2024-02-26T02:12:04;98269.13;;;7.75;95.00
74621;BME280;75998;47.550;19.254;2024-02-26T02:14:32;98282.84;;;7.77;95.10
74621;BME280;75998;47.550;19.254;2024-02-26T02:17:00;98291.47;;;7.78;95.41
74621;BME280;75998;47.550;19.254;2024-02-26T02:19:25;98211.25;;;7.35;94.94
74621;BME280;75998;47.550;19.254;2024-02-26T02:21:53;98170.00;;;6.92;94.97
74621;BME280;75998;47.550;19.254;2024-02-26T02:24:28;98295.75;;;7.66;95.66
74621;BME280;75998;47.550;19.254;2024-02-26T02:26:53;98174.94;;;6.95;95.61
74621;BME280;75998;47.550;19.254;2024-02-26T02:29:22;98194.72;;;7.11;95.52
74621;BME280;75998;47.550;19.254;2024-02-26T02:31:48;98371.06;;;8.32;95.28
74621;BME280;75998;47.550;19.254;2024-02-26T02:34:14;98244.31;;;7.46;95.00
74621;BME280;75998;47.550;19.254;2024-02-26T02:36:53;98346.84;;;8.06;94.81
74621;BME280;75998;47.550;19.254;2024-02-26T02:39:20;98261.34;;;7.50;95.04
74621;BME280;75998;47.550;19.254;2024-02-26T02:41:49;98180.06;;;7.10;94.47
74621;BME280;75998;47.550;19.254;2024-02-26T02:44:14;98205.00;;;7.25;94.56
74621;BME280;75998;47.550;19.254;2024-02-26T02:46:40;98169.34;;;7.01;94.15
74621;BME280;75998;47.550;19.254;2024-02-26T02:49:09;98282.56;;;7.57;94.33
74621;BME280;75998;47.550;19.254;2024-02-26T02:51:38;98309.38;;;7.70;94.04
74621;BME280;75998;47.550;19.254;2024-02-26T02:54:09;98064.53;;;6.26;93.65
74621;BME280;75998;47.550;19.254;2024-02-26T02:56:35;98071.22;;;6.16;94.59
74621;BME280;75998;47.550;19.254;2024-02-26T02:59:01;98274.31;;;7.37;95.44
74621;BME280;75998;47.550;19.254;2024-02-26T03:01:30;98232.41;;;7.03;95.35
74621;BME280;75998;47.550;19.254;2024-02-26T03:03:55;98195.00;;;6.80;95.49
74621;BME280;75998;47.550;19.254;2024-02-26T03:06:30;98260.16;;;7.03;95.02
74621;BME280;75998;47.550;19.254;2024-02-26T03:08:58;98108.09;;;6.21;94.75
74621;BME280;75998;47.550;19.254;2024-02-26T03:11:24;98245.84;;;7.10;95.17
74621;BME280;75998;47.550;19.254;2024-02-26T03:13:52;98129.31;;;6.40;94.66
74621;BME280;75998;47.550;19.254;2024-02-26T03:16:18;98348.06;;;7.74;94.50
74621;BME280;75998;47.550;19.254;2024-02-26T03:18:43;98142.19;;;6.54;94.03
74621;BME280;75998;47.550;19.254;2024-02-26T03:21:09;98391.88;;;7.93;94.64
74621;BME280;75998;47.550;19.254;2024-02-26T03:23:35;98117.19;;;6.14;94.90
74621;BME280;75998;47.550;19.254;2024-02-26T03:26:05;98060.22;;;5.85;95.61
74621;BME280;75998;47.550;19.254;2024-02-26T03:28:33;98185.47;;;6.54;96.39
74621;BME280;75998;47.550;19.254;2024-02-26T03:30:59;98135.25;;;6.15;96.32
74621;BME280;75998;47.550;19.254;2024-02-26T03:33:27;98132.69;;;6.28;96.33
74621;BME280;75998;47.550;19.254;2024-02-26T03:35:56;98198.34;;;6.55;96.41
74621;BME280;75998;47.550;19.254;2024-02-26T03:38:24;98090.28;;;6.02;96.15
74621;BME280;75998;47.550;19.254;2024-02-26T03:40:52;98279.09;;;7.18;96.02
74621;BME280;75998;47.550;19.254;2024-02-26T03:43:20;98080.50;;;5.93;95.73
74621;BME280;75998;47.550;19.254;2024-02-26T03:45:53;98090.66;;;5.96;96.13
74621;BME280;75998;47.550;19.254;2024-02-26T03:48:18;98121.84;;;6.08;96.33
74621;BME280;75998;47.550;19.254;2024-02-26T03:50:45;98123.09;;;6.03;96.49
74621;BME280;75998;47.550;19.254;2024-02-26T03:53:16;98092.66;;;5.78;96.98
74621;BME280;75998;47.550;19.254;2024-02-26T03:55:44;98065.28;;;5.74;96.89
74621;BME280;75998;47.550;19.254;2024-02-26T03:58:09;98314.03;;;7.26;97.11
74621;BME280;75998;47.550;19.254;2024-02-26T04:04:47;98115.88;;;5.94;97.30
74621;BME280;75998;47.550;19.254;2024-02-26T04:07:13;98169.41;;;6.22;97.07
74621;BME280;75998;47.550;19.254;2024-02-26T04:09:39;98080.16;;;5.84;97.22
74621;BME280;75998;47.550;19.254;2024-02-26T04:12:05;98381.03;;;7.74;97.59
74621;BME280;75998;47.550;19.254;2024-02-26T04:14:30;98372.22;;;7.76;97.73
74621;BME280;75998;47.550;19.254;2024-02-26T04:16:59;98091.41;;;5.98;97.26
74621;BME280;75998;47.550;19.254;2024-02-26T04:19:32;98294.19;;;7.25;97.54
74621;BME280;75998;47.550;19.254;2024-02-26T04:21:59;98279.59;;;7.10;97.33
74621;BME280;75998;47.550;19.254;2024-02-26T04:24:24;98176.47;;;6.59;97.47
74621;BME280;75998;47.550;19.254;2024-02-26T04:26:53;98267.25;;;7.26;97.54
74621;BME280;75998;47.550;19.254;2024-02-26T04:29:19;98388.34;;;8.07;98.17
74621;BME280;75998;47.550;19.254;2024-02-26T04:31:44;98204.75;;;6.77;97.62
74621;BME280;75998;47.550;19.254;2024-02-26T04:34:11;98147.53;;;6.66;97.70
74621;BME280;75998;47.550;19.254;2024-02-26T04:36:42;98048.75;;;6.16;97.60
74621;BME280;75998;47.550;19.254;2024-02-26T04:39:08;98089.03;;;6.34;97.77
74621;BME280;75998;47.550;19.254;2024-02-26T04:41:35;98202.50;;;7.11;97.66
74621;BME280;75998;47.550;19.254;2024-02-26T04:44:03;98269.75;;;7.53;98.01
74621;BME280;75998;47.550;19.254;2024-02-26T04:46:29;98213.31;;;7.17;97.68
74621;BME280;75998;47.550;19.254;2024-02-26T04:48:54;98317.19;;;7.83;97.99
74621;BME280;75998;47.550;19.254;2024-02-26T04:51:20;98155.72;;;6.85;97.62
74621;BME280;75998;47.550;19.254;2024-02-26T04:53:46;98308.97;;;7.89;97.67
74621;BME280;75998;47.550;19.254;2024-02-26T04:56:11;98189.72;;;7.20;97.80
74621;BME280;75998;47.550;19.254;2024-02-26T04:58:37;98227.88;;;7.33;97.57
74621;BME280;75998;47.550;19.254;2024-02-26T05:01:05;98098.28;;;6.64;97.17
74621;BME280;75998;47.550;19.254;2024-02-26T05:03:34;98208.66;;;7.22;96.95
74621;BME280;75998;47.550;19.254;2024-02-26T05:06:00;98373.25;;;8.25;97.08
74621;BME280;75998;47.550;19.254;2024-02-26T05:08:26;98258.22;;;7.58;96.91
74621;BME280;75998;47.550;19.254;2024-02-26T05:10:51;98227.13;;;7.43;96.90
74621;BME280;75998;47.550;19.254;2024-02-26T05:13:16;98341.50;;;8.20;96.70
74621;BME280;75998;47.550;19.254;2024-02-26T05:15:43;98371.50;;;8.38;96.48
74621;BME280;75998;47.550;19.254;2024-02-26T05:18:11;98261.84;;;7.68;96.33
74621;BME280;75998;47.550;19.254;2024-02-26T05:20:37;98324.84;;;8.10;96.36
74621;BME280;75998;47.550;19.254;2024-02-26T05:23:03;98321.63;;;8.06;96.46
74621;BME280;75998;47.550;19.254;2024-02-26T05:25:29;98264.25;;;7.71;96.58
74621;BME280;75998;47.550;19.254;2024-02-26T05:27:55;98366.47;;;8.35;96.41
74621;BME280;75998;47.550;19.254;2024-02-26T05:30:20;98208.41;;;7.38;96.59
74621;BME280;75998;47.550;19.254;2024-02-26T05:32:46;98204.78;;;7.41;96.10
74621;BME280;75998;47.550;19.254;2024-02-26T05:35:11;98350.44;;;8.29;96.58
74621;BME280;75998;47.550;19.254;2024-02-26T05:37:37;98337.03;;;8.09;96.42
74621;BME280;75998;47.550;19.254;2024-02-26T05:40:04;98308.56;;;7.95;96.51
74621;BME280;75998;47.550;19.254;2024-02-26T05:42:30;98353.34;;;8.24;96.57
74621;BME280;75998;47.550;19.254;2024-02-26T05:44:55;98266.75;;;7.72;96.67
74621;BME280;75998;47.550;19.254;2024-02-26T05:47:21;98195.25;;;7.28;96.44
74621;BME280;75998;47.550;19.254;2024-02-26T05:49:49;98237.00;;;7.64;96.65
74621;BME280;75998;47.550;19.254;2024-02-26T05:52:15;98280.34;;;7.89;96.77
74621;BME280;75998;47.550;19.254;2024-02-26T05:54:40;98230.34;;;7.47;96.41
74621;BME280;75998;47.550;19.254;2024-02-26T05:57:06;98356.06;;;8.35;96.52
74621;BME280;75998;47.550;19.254;2024-02-26T05:59:32;98184.22;;;7.12;96.58
74621;BME280;75998;47.550;19.254;2024-02-26T06:01:58;98252.31;;;7.68;96.66
74621;BME280;75998;47.550;19.254;2024-02-26T06:04:24;98260.41;;;7.64;96.62
74621;BME280;75998;47.550;19.254;2024-02-26T06:06:49;98231.19;;;7.47;96.77
74621;BME280;75998;47.550;19.254;2024-02-26T06:09:15;98317.47;;;8.16;96.62
74621;BME280;75998;47.550;19.254;2024-02-26T06:11:40;98365.13;;;8.42;97.01
74621;BME280;75998;47.550;19.254;2024-02-26T06:14:06;98303.03;;;7.99;96.97
74621;BME280;75998;47.550;19.254;2024-02-26T06:16:35;98318.91;;;8.08;97.22
74621;BME280;75998;47.550;19.254;2024-02-26T06:19:00;98317.66;;;8.26;96.97
74621;BME280;75998;47.550;19.254;2024-02-26T06:21:26;98372.31;;;8.52;97.23
74621;BME280;75998;47.550;19.254;2024-02-26T06:23:51;98381.03;;;8.51;97.29
74621;BME280;75998;47.550;19.254;2024-02-26T06:26:17;98374.28;;;8.48;97.25
74621;BME280;75998;47.550;19.254;2024-02-26T06:28:42;98207.78;;;7.47;96.99
74621;BME280;75998;47.550;19.254;2024-02-26T06:31:08;98239.81;;;7.61;96.96
74621;BME280;75998;47.550;19.254;2024-02-26T06:33:33;98226.59;;;7.64;97.10
74621;BME280;75998;47.550;19.254;2024-02-26T06:35:59;98236.78;;;7.67;97.03
74621;BME280;75998;47.550;19.254;2024-02-26T06:38:24;98240.97;;;7.69;97.30
74621;BME280;75998;47.550;19.254;2024-02-26T06:40:53;98379.91;;;8.55;97.06
74621;BME280;75998;47.550;19.254;2024-02-26T06:43:18;98264.22;;;7.84;96.42
74621;BME280;75998;47.550;19.254;2024-02-26T06:45:43;98245.81;;;7.74;96.81
74621;BME280;75998;47.550;19.254;2024-02-26T06:48:09;98361.47;;;8.58;96.74
74621;BME280;75998;47.550;19.254;2024-02-26T06:50:34;98339.72;;;8.46;96.66
74621;BME280;75998;47.550;19.254;2024-02-26T06:53:00;98312.03;;;8.19;96.47
74621;BME280;75998;47.550;19.254;2024-02-26T06:55:26;98326.81;;;8.32;96.67
74621;BME280;75998;47.550;19.254;2024-02-26T06:57:51;98319.31;;;8.40;96.80
74621;BME280;75998;47.550;19.254;2024-02-26T07:00:17;98326.09;;;8.42;96.65
74621;BME280;75998;47.550;19.254;2024-02-26T07:02:43;98374.41;;;8.70;96.38
74621;BME280;75998;47.550;19.254;2024-02-26T07:05:09;98327.84;;;8.42;96.70
74621;BME280;75998;47.550;19.254;2024-02-26T07:07:40;98311.63;;;8.38;96.34
74621;BME280;75998;47.550;19.254;2024-02-26T07:10:06;98386.34;;;8.86;96.27
74621;BME280;75998;47.550;19.254;2024-02-26T07:12:32;98269.66;;;8.17;95.79
74621;BME280;75998;47.550;19.254;2024-02-26T07:14:58;98370.06;;;8.95;95.72
74621;BME280;75998;47.550;19.254;2024-02-26T07:17:23;98339.34;;;8.63;95.70
74621;BME280;75998;47.550;19.254;2024-02-26T07:19:49;98329.09;;;8.73;95.45
74621;BME280;75998;47.550;19.254;2024-02-26T07:22:15;98271.19;;;8.45;95.40
74621;BME280;75998;47.550;19.254;2024-02-26T07:24:40;98305.56;;;8.75;95.17
74621;BME280;75998;47.550;19.254;2024-02-26T07:30:31;98251.00;;;8.36;94.80
74621;BME280;75998;47.550;19.254;2024-02-26T07:32:56;98197.38;;;8.10;94.61
74621;BME280;75998;47.550;19.254;2024-02-26T07:35:21;98271.09;;;8.71;94.96
74621;BME280;75998;47.550;19.254;2024-02-26T07:37:50;98368.59;;;9.39;94.40
74621;BME280;75998;47.550;19.254;2024-02-26T07:40:16;98216.78;;;8.54;94.52
74621;BME280;75998;47.550;19.254;2024-02-26T07:42:41;98358.56;;;9.57;94.40
74621;BME280;75998;47.550;19.254;2024-02-26T07:45:07;98324.97;;;9.30;93.63
74621;BME280;75998;47.550;19.254;2024-02-26T07:47:32;98230.53;;;8.56;93.88
74621;BME280;75998;47.550;19.254;2024-02-26T07:49:59;98293.56;;;8.96;93.64
74621;BME280;75998;47.550;19.254;2024-02-26T07:52:25;98330.00;;;9.20;94.07
74621;BME280;75998;47.550;19.254;2024-02-26T07:54:50;98337.28;;;9.28;93.66
74621;BME280;75998;47.550;19.254;2024-02-26T07:57:15;98337.16;;;9.29;92.77
74621;BME280;75998;47.550;19.254;2024-02-26T07:59:42;98357.66;;;9.58;93.28
74621;BME280;75998;47.550;19.254;2024-02-26T08:02:08;98352.34;;;9.35;92.55
74621;BME280;75998;47.550;19.254;2024-02-26T08:04:33;98356.28;;;9.41;92.49
74621;BME280;75998;47.550;19.254;2024-02-26T08:06:59;98236.25;;;8.96;92.58
74621;BME280;75998;47.550;19.254;2024-02-26T08:09:24;98399.91;;;9.74;92.26
74621;BME280;75998;47.550;19.254;2024-02-26T08:11:49;98264.66;;;8.88;92.45
74621;BME280;75998;47.550;19.254;2024-02-26T08:14:15;98348.03;;;9.47;92.22
74621;BME280;75998;47.550;19.254;2024-02-26T08:16:40;98375.81;;;9.71;91.86
74621;BME280;75998;47.550;19.254;2024-02-26T08:19:06;98342.91;;;9.46;92.14
74621;BME280;75998;47.550;19.254;2024-02-26T08:21:31;98211.47;;;8.55;91.75
74621;BME280;75998;47.550;19.254;2024-02-26T08:23:56;98383.81;;;9.56;92.45
74621;BME280;75998;47.550;19.254;2024-02-26T08:26:22;98323.16;;;9.54;91.73
74621;BME280;75998;47.550;19.254;2024-02-26T08:28:49;98348.53;;;9.63;91.51
74621;BME280;75998;47.550;19.254;2024-02-26T08:31:16;98381.56;;;9.98;91.28
74621;BME280;75998;47.550;19.254;2024-02-26T08:33:42;98322.91;;;9.57;91.44
74621;BME280;75998;47.550;19.254;2024-02-26T08:36:08;98431.66;;;10.03;91.34
74621;BME280;75998;47.550;19.254;2024-02-26T08:38:33;98287.19;;;9.35;91.30
74621;BME280;75998;47.550;19.254;2024-02-26T08:41:01;98347.47;;;9.66;91.24
74621;BME280;75998;47.550;19.254;2024-02-26T08:43:28;98293.19;;;9.25;91.20
74621;BME280;75998;47.550;19.254;2024-02-26T08:45:53;98336.06;;;9.56;91.54
74621;BME280;75998;47.550;19.254;2024-02-26T08:48:19;98368.69;;;9.73;91.15
74621;BME280;75998;47.550;19.254;2024-02-26T08:50:44;98449.47;;;10.21;91.42
74621;BME280;75998;47.550;19.254;2024-02-26T08:53:09;98408.25;;;9.91;91.30
74621;BME280;75998;47.550;19.254;2024-02-26T08:55:35;98349.69;;;9.48;91.34
74621;BME280;75998;47.550;19.254;2024-02-26T08:58:00;98389.78;;;9.70;91.07
74621;BME280;75998;47.550;19.254;2024-02-26T09:00:25;98439.94;;;10.20;91.23
74621;BME280;75998;47.550;19.254;2024-02-26T09:02:51;98339.06;;;9.74;91.56
74621;BME280;75998;47.550;19.254;2024-02-26T09:05:16;98438.78;;;10.24;90.81
74621;BME280;75998;47.550;19.254;2024-02-26T09:07:42;98438.13;;;10.44;90.46
74621;BME280;75998;47.550;19.254;2024-02-26T09:10:07;98367.19;;;9.93;90.42
74621;BME280;75998;47.550;19.254;2024-02-26T09:12:36;98335.88;;;9.81;90.76
74621;BME280;75998;47.550;19.254;2024-02-26T09:15:02;98342.50;;;9.74;90.26
74621;BME280;75998;47.550;19.254;2024-02-26T09:17:27;98363.28;;;9.87;90.17
74621;BME280;75998;47.550;19.254;2024-02-26T09:19:52;98431.34;;;10.30;90.26
74621;BME280;75998;47.550;19.254;2024-02-26T09:22:18;98428.84;;;10.29;90.29
74621;BME280;75998;47.550;19.254;2024-02-26T09:24:43;98447.97;;;10.41;89.41
74621;BME280;75998;47.550;19.254;2024-02-26T09:27:08;98425.41;;;10.40;89.38
74621;BME280;75998;47.550;19.254;2024-02-26T09:29:35;98411.66;;;10.38;89.85
74621;BME280;75998;47.550;19.254;2024-02-26T09:32:01;98360.09;;;10.17;89.61
74621;BME280;75998;47.550;19.254;2024-02-26T09:34:26;98451.31;;;10.54;89.57
74621;BME280;75998;47.550;19.254;2024-02-26T09:36:52;98442.97;;;10.82;89.58
74621;BME280;75998;47.550;19.254;2024-02-26T09:39:17;98417.34;;;10.76;88.54
74621;BME280;75998;47.550;19.254;2024-02-26T09:41:47;98392.44;;;10.50;88.75
74621;BME280;75998;47.550;19.254;2024-02-26T09:44:18;98439.03;;;10.99;88.25
74621;BME280;75998;47.550;19.254;2024-02-26T09:46:45;98454.25;;;10.94;87.50
74621;BME280;75998;47.550;19.254;2024-02-26T09:49:11;98395.22;;;10.80;88.01
74621;BME280;75998;47.550;19.254;2024-02-26T09:51:39;98442.94;;;11.05;86.59
74621;BME280;75998;47.550;19.254;2024-02-26T09:54:07;98345.63;;;10.35;86.85
74621;BME280;75998;47.550;19.254;2024-02-26T09:56:36;98447.59;;;11.45;86.29
74621;BME280;75998;47.550;19.254;2024-02-26T09:59:06;98423.19;;;11.12;85.37
74621;BME280;75998;47.550;19.254;2024-02-26T10:01:36;98367.00;;;10.52;85.93
74621;BME280;75998;47.550;19.254;2024-02-26T10:04:03;98391.69;;;10.70;86.23
74621;BME280;75998;47.550;19.254;2024-02-26T10:06:29;98459.06;;;11.33;87.25
74621;BME280;75998;47.550;19.254;2024-02-26T10:08:55;98364.63;;;10.60;86.32
74621;BME280;75998;47.550;19.254;2024-02-26T10:11:23;98392.09;;;10.98;85.79
74621;BME280;75998;47.550;19.254;2024-02-26T10:13:49;98473.41;;;11.49;84.88
74621;BME280;75998;47.550;19.254;2024-02-26T10:16:16;98412.16;;;11.09;85.13
74621;BME280;75998;47.550;19.254;2024-02-26T10:18:48;98423.38;;;10.88;86.14
74621;BME280;75998;47.550;19.254;2024-02-26T10:21:16;98450.25;;;11.22;85.83
74621;BME280;75998;47.550;19.254;2024-02-26T10:23:43;98383.81;;;10.81;86.27
74621;BME280;75998;47.550;19.254;2024-02-26T10:26:10;98386.31;;;10.72;85.84
74621;BME280;75998;47.550;19.254;2024-02-26T10:28:36;98426.66;;;11.13;86.21
74621;BME280;75998;47.550;19.254;2024-02-26T10:31:02;98453.72;;;11.23;85.90
74621;BME280;75998;47.550;19.254;2024-02-26T10:33:27;98406.09;;;11.08;85.69
74621;BME280;75998;47.550;19.254;2024-02-26T10:35:54;98463.69;;;11.29;85.51
74621;BME280;75998;47.550;19.254;2024-02-26T10:38:19;98414.50;;;11.23;85.29
74621;BME280;75998;47.550;19.254;2024-02-26T10:40:46;98373.50;;;11.12;85.44
74621;BME280;75998;47.550;19.254;2024-02-26T10:43:12;98412.75;;;11.44;84.92
74621;BME280;75998;47.550;19.254;2024-02-26T10:45:39;98368.44;;;11.43;83.93
74621;BME280;75998;47.550;19.254;2024-02-26T10:48:12;98339.44;;;11.76;82.86
74621;BME280;75998;47.550;19.254;2024-02-26T10:50:38;98422.34;;;11.87;82.58
74621;BME280;75998;47.550;19.254;2024-02-26T10:53:05;98424.16;;;12.17;83.62
74621;BME280;75998;47.550;19.254;2024-02-26T10:55:33;98446.72;;;12.30;82.31
74621;BME280;75998;47.550;19.254;2024-02-26T10:58:01;98448.47;;;12.50;80.86
74621;BME280;75998;47.550;19.254;2024-02-26T11:00:28;98342.31;;;11.73;80.45
74621;BME280;75998;47.550;19.254;2024-02-26T11:02:55;98433.53;;;12.41;80.87
74621;BME280;75998;47.550;19.254;2024-02-26T11:05:23;98385.66;;;12.08;79.90
74621;BME280;75998;47.550;19.254;2024-02-26T11:07:50;98426.56;;;12.91;80.24
74621;BME280;75998;47.550;19.254;2024-02-26T11:10:17;98391.31;;;12.65;78.82
74621;BME280;75998;47.550;19.254;2024-02-26T11:12:43;98340.41;;;12.77;79.19
74621;BME280;75998;47.550;19.254;2024-02-26T11:15:09;98381.00;;;12.83;78.49
74621;BME280;75998;47.550;19.254;2024-02-26T11:17:35;98389.84;;;13.01;77.75
74621;BME280;75998;47.550;19.254;2024-02-26T11:20:02;98327.06;;;12.30;78.63
74621;BME280;75998;47.550;19.254;2024-02-26T11:22:28;98355.16;;;12.59;76.73
74621;BME280;75998;47.550;19.254;2024-02-26T11:24:56;98413.06;;;13.06;78.02
74621;BME280;75998;47.550;19.254;2024-02-26T11:27:29;98416.97;;;13.21;77.22
74621;BME280;75998;47.550;19.254;2024-02-26T11:29:57;98358.66;;;12.48;76.36
74621;BME280;75998;47.550;19.254;2024-02-26T11:32:26;98407.06;;;12.84;76.99
74621;BME280;75998;47.550;19.254;2024-02-26T11:34:53;98423.06;;;13.60;75.16
74621;BME280;75998;47.550;19.254;2024-02-26T11:37:19;98430.25;;;13.39;76.25
74621;BME280;75998;47.550;19.254;2024-02-26T11:39:45;98433.72;;;13.49;74.86
74621;BME280;75998;47.550;19.254;2024-02-26T11:42:14;98401.78;;;13.73;73.88
74621;BME280;75998;47.550;19.254;2024-02-26T11:44:40;98352.06;;;13.23;73.17
74621;BME280;75998;47.550;19.254;2024-02-26T11:47:20;98330.66;;;12.89;74.37
74621;BME280;75998;47.550;19.254;2024-02-26T11:49:46;98323.19;;;13.13;73.33
74621;BME280;75998;47.550;19.254;2024-02-26T11:52:13;98351.09;;;12.95;74.57
74621;BME280;75998;47.550;19.254;2024-02-26T11:54:49;98400.38;;;13.21;74.74
74621;BME280;75998;47.550;19.254;2024-02-26T11:57:43;98415.34;;;13.49;74.51
74621;BME280;75998;47.550;19.254;2024-02-26T12:00:15;98399.13;;;13.93;72.50
74621;BME280;75998;47.550;19.254;2024-02-26T12:02:50;98400.13;;;13.92;72.16
74621;BME280;75998;47.550;19.254;2024-02-26T12:05:23;98353.22;;;13.97;70.69
74621;BME280;75998;47.550;19.254;2024-02-26T12:08:03;98347.09;;;13.59;71.31
74621;BME280;75998;47.550;19.254;2024-02-26T12:10:33;98431.63;;;13.82;71.44
74621;BME280;75998;47.550;19.254;2024-02-26T12:15:45;98299.75;;;13.22;72.06
74621;BME280;75998;47.550;19.254;2024-02-26T12:18:20;98377.78;;;13.29;72.64
74621;BME280;75998;47.550;19.254;2024-02-26T12:20:46;98315.75;;;12.99;73.70
74621;BME280;75998;47.550;19.254;2024-02-26T12:23:16;98359.84;;;13.25;73.01
74621;BME280;75998;47.550;19.254;2024-02-26T12:25:44;98412.28;;;13.73;72.88
74621;BME280;75998;47.550;19.254;2024-02-26T12:28:14;98403.31;;;13.66;72.40
74621;BME280;75998;47.550;19.254;2024-02-26T12:30:39;98312.03;;;12.92;73.61
74621;BME280;75998;47.550;19.254;2024-02-26T12:33:05;98415.88;;;13.43;73.53
74621;BME280;75998;47.550;19.254;2024-02-26T12:35:31;98392.16;;;13.45;73.21
74621;BME280;75998;47.550;19.254;2024-02-26T12:37:58;98402.31;;;13.86;71.89
74621;BME280;75998;47.550;19.254;2024-02-26T12:40:23;98310.91;;;13.24;71.83
74621;BME280;75998;47.550;19.254;2024-02-26T12:42:49;98341.31;;;13.26;70.46
74621;BME280;75998;47.550;19.254;2024-02-26T12:45:15;98402.19;;;13.88;71.01
74621;BME280;75998;47.550;19.254;2024-02-26T12:47:45;98399.16;;;13.73;69.72
74621;BME280;75998;47.550;19.254;2024-02-26T12:50:11;98355.63;;;13.71;69.51
74621;BME280;75998;47.550;19.254;2024-02-26T12:52:46;98345.00;;;13.72;68.75
74621;BME280;75998;47.550;19.254;2024-02-26T12:55:18;98371.31;;;14.09;68.03
74621;BME280;75998;47.550;19.254;2024-02-26T12:57:45;98280.88;;;13.75;68.00
74621;BME280;75998;47.550;19.254;2024-02-26T13:00:14;98393.59;;;14.43;67.25
74621;BME280;75998;47.550;19.254;2024-02-26T13:02:52;98400.50;;;14.06;67.96
74621;BME280;75998;47.550;19.254;2024-02-26T13:05:20;98392.38;;;13.90;68.17
74621;BME280;75998;47.550;19.254;2024-02-26T13:07:46;98324.22;;;13.98;67.63